sensor_id;sensor_type;location;lat;lon;timestamp;P1;durP1;ratioP1;P2;durP2;ratioP2
12038;SDS011;6080;48.818;9.526;2022-07-23T00:01:30;9.00;;;8.30;;
12038;SDS011;6080;48.818;9.526;2022-07-23T00:03:56;14.77;;;13.85;;
12038;SDS011;6080;48.818;9.526;2022-07-23T00:06:23;32.65;;;30.65;;
12038;SDS011;6080;48.818;9.526;2022-07-23T00:08:49;37.25;;;35.15;;
12038;SDS011;6080;48.818;9.526;2022-07-23T00:11:16;50.05;;;47.03;;
12038;SDS011;6080;48.818;9.526;2022-07-23T00:13:42;52.20;;;49.45;;
12038;SDS011;6080;48.818;9.526;2022-07-23T00:16:08;53.05;;;50.13;;
12038;SDS011;6080;48.818;9.526;2022-07-23T00:18:34;58.70;;;55.72;;
12038;SDS011;6080;48.818;9.526;2022-07-23T00:21:00;32.47;;;30.73;;
12038;SDS011;6080;48.818;9.526;2022-07-23T00:23:25;17.52;;;16.50;;
12038;SDS011;6080;48.818;9.526;2022-07-23T00:25:53;25.75;;;24.13;;
12038;SDS011;6080;48.818;9.526;2022-07-23T00:28:19;18.52;;;17.42;;
12038;SDS011;6080;48.818;9.526;2022-07-23T00:30:45;15.63;;;14.60;;
12038;SDS011;6080;48.818;9.526;2022-07-23T00:33:13;19.90;;;18.88;;
12038;SDS011;6080;48.818;9.526;2022-07-23T00:35:39;20.33;;;19.08;;
12038;SDS011;6080;48.818;9.526;2022-07-23T00:38:06;20.60;;;19.30;;
12038;SDS011;6080;48.818;9.526;2022-07-23T00:40:34;16.27;;;15.23;;
12038;SDS011;6080;48.818;9.526;2022-07-23T00:43:00;12.35;;;11.50;;
12038;SDS011;6080;48.818;9.526;2022-07-23T00:45:27;10.32;;;9.63;;
12038;SDS011;6080;48.818;9.526;2022-07-23T00:47:53;8.23;;;7.63;;
12038;SDS011;6080;48.818;9.526;2022-07-23T00:50:19;8.25;;;7.53;;
12038;SDS011;6080;48.818;9.526;2022-07-23T00:52:45;10.05;;;9.45;;
12038;SDS011;6080;48.818;9.526;2022-07-23T00:55:11;7.20;;;6.57;;
12038;SDS011;6080;48.818;9.526;2022-07-23T00:57:38;7.32;;;6.93;;
12038;SDS011;6080;48.818;9.526;2022-07-23T01:00:06;10.75;;;9.75;;
12038;SDS011;6080;48.818;9.526;2022-07-23T01:02:34;12.68;;;11.88;;
12038;SDS011;6080;48.818;9.526;2022-07-23T01:05:00;34.30;;;32.38;;
12038;SDS011;6080;48.818;9.526;2022-07-23T01:07:26;44.97;;;42.40;;
12038;SDS011;6080;48.818;9.526;2022-07-23T01:09:53;35.20;;;33.35;;
12038;SDS011;6080;48.818;9.526;2022-07-23T01:12:19;41.08;;;38.97;;
12038;SDS011;6080;48.818;9.526;2022-07-23T01:14:53;25.65;;;24.17;;
12038;SDS011;6080;48.818;9.526;2022-07-23T01:17:23;28.20;;;26.67;;
12038;SDS011;6080;48.818;9.526;2022-07-23T01:19:48;25.27;;;23.60;;
12038;SDS011;6080;48.818;9.526;2022-07-23T01:22:14;36.10;;;33.90;;
12038;SDS011;6080;48.818;9.526;2022-07-23T01:24:43;37.30;;;35.35;;
12038;SDS011;6080;48.818;9.526;2022-07-23T01:27:08;30.73;;;28.83;;
12038;SDS011;6080;48.818;9.526;2022-07-23T01:29:34;24.42;;;22.98;;
12038;SDS011;6080;48.818;9.526;2022-07-23T01:32:00;14.48;;;13.68;;
12038;SDS011;6080;48.818;9.526;2022-07-23T01:34:26;11.75;;;11.05;;
12038;SDS011;6080;48.818;9.526;2022-07-23T01:36:52;7.40;;;6.80;;
12038;SDS011;6080;48.818;9.526;2022-07-23T01:39:17;6.55;;;6.15;;
12038;SDS011;6080;48.818;9.526;2022-07-23T01:41:43;5.93;;;5.53;;
12038;SDS011;6080;48.818;9.526;2022-07-23T01:44:09;6.93;;;6.43;;
12038;SDS011;6080;48.818;9.526;2022-07-23T01:46:35;5.95;;;5.60;;
12038;SDS011;6080;48.818;9.526;2022-07-23T01:49:00;6.47;;;6.10;;
12038;SDS011;6080;48.818;9.526;2022-07-23T01:51:26;6.10;;;5.80;;
12038;SDS011;6080;48.818;9.526;2022-07-23T01:53:52;6.00;;;5.50;;
12038;SDS011;6080;48.818;9.526;2022-07-23T01:56:18;6.18;;;5.88;;
12038;SDS011;6080;48.818;9.526;2022-07-23T01:58:46;7.93;;;7.32;;
12038;SDS011;6080;48.818;9.526;2022-07-23T02:01:12;7.22;;;6.72;;
12038;SDS011;6080;48.818;9.526;2022-07-23T02:03:38;6.30;;;6.00;;
12038;SDS011;6080;48.818;9.526;2022-07-23T02:06:04;8.75;;;8.25;;
12038;SDS011;6080;48.818;9.526;2022-07-23T02:08:30;9.13;;;8.63;;
12038;SDS011;6080;48.818;9.526;2022-07-23T02:10:55;9.60;;;9.02;;
12038;SDS011;6080;48.818;9.526;2022-07-23T02:13:21;11.63;;;10.68;;
12038;SDS011;6080;48.818;9.526;2022-07-23T02:15:47;18.13;;;17.15;;
12038;SDS011;6080;48.818;9.526;2022-07-23T02:18:13;25.30;;;23.98;;
12038;SDS011;6080;48.818;9.526;2022-07-23T02:20:39;27.83;;;26.42;;
12038;SDS011;6080;48.818;9.526;2022-07-23T02:23:05;26.13;;;24.73;;
12038;SDS011;6080;48.818;9.526;2022-07-23T02:25:32;24.02;;;22.70;;
12038;SDS011;6080;48.818;9.526;2022-07-23T02:27:58;15.70;;;14.80;;
12038;SDS011;6080;48.818;9.526;2022-07-23T02:30:24;13.48;;;12.68;;
12038;SDS011;6080;48.818;9.526;2022-07-23T02:32:51;9.70;;;9.10;;
12038;SDS011;6080;48.818;9.526;2022-07-23T02:35:17;8.68;;;7.97;;
12038;SDS011;6080;48.818;9.526;2022-07-23T02:37:46;9.02;;;8.45;;
12038;SDS011;6080;48.818;9.526;2022-07-23T02:40:11;11.15;;;10.35;;
12038;SDS011;6080;48.818;9.526;2022-07-23T02:42:37;9.18;;;8.45;;
12038;SDS011;6080;48.818;9.526;2022-07-23T02:45:03;10.40;;;9.52;;
12038;SDS011;6080;48.818;9.526;2022-07-23T02:47:29;8.10;;;7.60;;
12038;SDS011;6080;48.818;9.526;2022-07-23T02:49:57;7.90;;;7.40;;
12038;SDS011;6080;48.818;9.526;2022-07-23T02:52:22;6.85;;;6.28;;
12038;SDS011;6080;48.818;9.526;2022-07-23T02:54:48;6.25;;;5.75;;
12038;SDS011;6080;48.818;9.526;2022-07-23T02:57:14;6.47;;;5.97;;
12038;SDS011;6080;48.818;9.526;2022-07-23T02:59:40;6.50;;;6.00;;
12038;SDS011;6080;48.818;9.526;2022-07-23T03:02:06;6.82;;;6.10;;
12038;SDS011;6080;48.818;9.526;2022-07-23T03:04:31;6.50;;;6.00;;
12038;SDS011;6080;48.818;9.526;2022-07-23T03:06:57;7.32;;;6.93;;
12038;SDS011;6080;48.818;9.526;2022-07-23T03:09:23;9.68;;;8.98;;
12038;SDS011;6080;48.818;9.526;2022-07-23T03:11:49;9.75;;;9.13;;
12038;SDS011;6080;48.818;9.526;2022-07-23T03:14:15;8.23;;;7.63;;
12038;SDS011;6080;48.818;9.526;2022-07-23T03:16:41;7.82;;;7.30;;
12038;SDS011;6080;48.818;9.526;2022-07-23T03:19:07;7.72;;;7.22;;
12038;SDS011;6080;48.818;9.526;2022-07-23T03:21:33;7.78;;;7.28;;
12038;SDS011;6080;48.818;9.526;2022-07-23T03:23:59;6.80;;;6.30;;
12038;SDS011;6080;48.818;9.526;2022-07-23T03:26:25;7.53;;;6.88;;
12038;SDS011;6080;48.818;9.526;2022-07-23T03:28:51;8.35;;;7.85;;
12038;SDS011;6080;48.818;9.526;2022-07-23T03:31:19;8.70;;;8.07;;
12038;SDS011;6080;48.818;9.526;2022-07-23T03:33:45;19.80;;;18.60;;
12038;SDS011;6080;48.818;9.526;2022-07-23T03:36:11;28.08;;;26.48;;
12038;SDS011;6080;48.818;9.526;2022-07-23T03:38:37;22.08;;;20.77;;
12038;SDS011;6080;48.818;9.526;2022-07-23T03:41:02;20.48;;;19.20;;
12038;SDS011;6080;48.818;9.526;2022-07-23T03:43:28;9.80;;;9.23;;
12038;SDS011;6080;48.818;9.526;2022-07-23T03:45:54;10.45;;;9.65;;
12038;SDS011;6080;48.818;9.526;2022-07-23T03:48:20;9.65;;;8.85;;
12038;SDS011;6080;48.818;9.526;2022-07-23T03:50:46;7.32;;;6.88;;
12038;SDS011;6080;48.818;9.526;2022-07-23T03:53:12;12.15;;;10.63;;
12038;SDS011;6080;48.818;9.526;2022-07-23T03:55:38;12.20;;;11.48;;
12038;SDS011;6080;48.818;9.526;2022-07-23T03:58:03;11.73;;;11.07;;
12038;SDS011;6080;48.818;9.526;2022-07-23T04:00:29;13.13;;;12.38;;
12038;SDS011;6080;48.818;9.526;2022-07-23T04:02:55;16.30;;;15.38;;
12038;SDS011;6080;48.818;9.526;2022-07-23T04:05:21;26.73;;;25.17;;
12038;SDS011;6080;48.818;9.526;2022-07-23T04:07:47;76.15;;;72.10;;
12038;SDS011;6080;48.818;9.526;2022-07-23T04:10:13;58.55;;;55.53;;
12038;SDS011;6080;48.818;9.526;2022-07-23T04:12:38;61.75;;;58.47;;
12038;SDS011;6080;48.818;9.526;2022-07-23T04:15:04;58.35;;;55.25;;
12038;SDS011;6080;48.818;9.526;2022-07-23T04:17:33;45.53;;;42.97;;
12038;SDS011;6080;48.818;9.526;2022-07-23T04:19:59;56.47;;;53.47;;
12038;SDS011;6080;48.818;9.526;2022-07-23T04:22:25;52.65;;;49.80;;
12038;SDS011;6080;48.818;9.526;2022-07-23T04:24:50;45.33;;;42.92;;
12038;SDS011;6080;48.818;9.526;2022-07-23T04:27:16;41.05;;;38.75;;
12038;SDS011;6080;48.818;9.526;2022-07-23T04:29:42;16.77;;;15.73;;
12038;SDS011;6080;48.818;9.526;2022-07-23T04:32:08;14.68;;;13.70;;
12038;SDS011;6080;48.818;9.526;2022-07-23T04:34:33;15.85;;;14.75;;
12038;SDS011;6080;48.818;9.526;2022-07-23T04:36:59;16.73;;;15.73;;
12038;SDS011;6080;48.818;9.526;2022-07-23T04:39:25;17.55;;;16.40;;
12038;SDS011;6080;48.818;9.526;2022-07-23T04:41:51;12.57;;;11.77;;
12038;SDS011;6080;48.818;9.526;2022-07-23T04:44:16;10.40;;;9.63;;
12038;SDS011;6080;48.818;9.526;2022-07-23T04:46:42;11.32;;;10.57;;
12038;SDS011;6080;48.818;9.526;2022-07-23T04:49:08;8.18;;;7.57;;
12038;SDS011;6080;48.818;9.526;2022-07-23T04:51:34;9.00;;;8.30;;
12038;SDS011;6080;48.818;9.526;2022-07-23T04:53:59;10.65;;;10.05;;
12038;SDS011;6080;48.818;9.526;2022-07-23T04:56:25;11.43;;;10.73;;
12038;SDS011;6080;48.818;9.526;2022-07-23T04:58:51;14.65;;;13.73;;
12038;SDS011;6080;48.818;9.526;2022-07-23T05:01:17;16.20;;;15.18;;
12038;SDS011;6080;48.818;9.526;2022-07-23T05:03:43;30.17;;;28.30;;
12038;SDS011;6080;48.818;9.526;2022-07-23T05:06:08;39.67;;;37.40;;
12038;SDS011;6080;48.818;9.526;2022-07-23T05:08:34;39.35;;;37.35;;
12038;SDS011;6080;48.818;9.526;2022-07-23T05:11:00;23.35;;;22.05;;
12038;SDS011;6080;48.818;9.526;2022-07-23T05:13:26;15.77;;;14.63;;
12038;SDS011;6080;48.818;9.526;2022-07-23T05:15:52;14.80;;;13.90;;
12038;SDS011;6080;48.818;9.526;2022-07-23T05:18:17;11.70;;;10.90;;
12038;SDS011;6080;48.818;9.526;2022-07-23T05:20:43;13.82;;;12.63;;
12038;SDS011;6080;48.818;9.526;2022-07-23T05:23:09;10.43;;;9.73;;
12038;SDS011;6080;48.818;9.526;2022-07-23T05:25:35;10.48;;;9.57;;
12038;SDS011;6080;48.818;9.526;2022-07-23T05:28:01;8.13;;;7.63;;
12038;SDS011;6080;48.818;9.526;2022-07-23T05:30:27;7.65;;;7.05;;
12038;SDS011;6080;48.818;9.526;2022-07-23T05:32:53;7.75;;;7.07;;
12038;SDS011;6080;48.818;9.526;2022-07-23T05:35:19;7.63;;;6.97;;
12038;SDS011;6080;48.818;9.526;2022-07-23T05:37:44;7.80;;;7.15;;
12038;SDS011;6080;48.818;9.526;2022-07-23T05:40:10;7.63;;;7.03;;
12038;SDS011;6080;48.818;9.526;2022-07-23T05:42:37;8.23;;;7.28;;
12038;SDS011;6080;48.818;9.526;2022-07-23T05:45:04;9.35;;;8.57;;
12038;SDS011;6080;48.818;9.526;2022-07-23T05:47:43;10.38;;;9.68;;
12038;SDS011;6080;48.818;9.526;2022-07-23T05:50:10;12.98;;;12.07;;
12038;SDS011;6080;48.818;9.526;2022-07-23T05:52:37;9.02;;;8.52;;
12038;SDS011;6080;48.818;9.526;2022-07-23T05:55:04;8.23;;;7.68;;
12038;SDS011;6080;48.818;9.526;2022-07-23T05:57:31;43.20;;;40.95;;
12038;SDS011;6080;48.818;9.526;2022-07-23T05:59:56;44.97;;;42.53;;
12038;SDS011;6080;48.818;9.526;2022-07-23T06:02:22;21.90;;;20.70;;
12038;SDS011;6080;48.818;9.526;2022-07-23T06:04:48;31.98;;;30.08;;
12038;SDS011;6080;48.818;9.526;2022-07-23T06:07:14;46.05;;;43.55;;
12038;SDS011;6080;48.818;9.526;2022-07-23T06:09:40;116.88;;;110.95;;
12038;SDS011;6080;48.818;9.526;2022-07-23T06:12:06;124.32;;;118.10;;
12038;SDS011;6080;48.818;9.526;2022-07-23T06:14:32;25.98;;;24.48;;
12038;SDS011;6080;48.818;9.526;2022-07-23T06:16:58;16.63;;;15.60;;
12038;SDS011;6080;48.818;9.526;2022-07-23T06:19:24;15.18;;;14.38;;
12038;SDS011;6080;48.818;9.526;2022-07-23T06:21:50;18.95;;;17.45;;
12038;SDS011;6080;48.818;9.526;2022-07-23T06:24:16;17.92;;;16.92;;
12038;SDS011;6080;48.818;9.526;2022-07-23T06:26:42;15.80;;;14.60;;
12038;SDS011;6080;48.818;9.526;2022-07-23T06:29:08;16.92;;;15.82;;
12038;SDS011;6080;48.818;9.526;2022-07-23T06:31:34;31.58;;;29.77;;
12038;SDS011;6080;48.818;9.526;2022-07-23T06:34:00;30.10;;;28.33;;
12038;SDS011;6080;48.818;9.526;2022-07-23T06:36:25;99.65;;;94.70;;
12038;SDS011;6080;48.818;9.526;2022-07-23T06:38:52;73.75;;;69.97;;
12038;SDS011;6080;48.818;9.526;2022-07-23T06:41:17;14.80;;;13.68;;
12038;SDS011;6080;48.818;9.526;2022-07-23T06:43:43;17.73;;;16.73;;
12038;SDS011;6080;48.818;9.526;2022-07-23T06:46:09;10.82;;;10.02;;
12038;SDS011;6080;48.818;9.526;2022-07-23T06:48:35;19.75;;;18.60;;
12038;SDS011;6080;48.818;9.526;2022-07-23T06:51:01;32.65;;;30.60;;
12038;SDS011;6080;48.818;9.526;2022-07-23T06:53:28;59.85;;;56.65;;
12038;SDS011;6080;48.818;9.526;2022-07-23T06:55:54;53.58;;;50.75;;
12038;SDS011;6080;48.818;9.526;2022-07-23T06:58:19;55.95;;;52.78;;
12038;SDS011;6080;48.818;9.526;2022-07-23T07:00:45;58.47;;;55.38;;
12038;SDS011;6080;48.818;9.526;2022-07-23T07:03:11;54.33;;;51.50;;
12038;SDS011;6080;48.818;9.526;2022-07-23T07:05:37;47.00;;;44.40;;
12038;SDS011;6080;48.818;9.526;2022-07-23T07:08:04;30.65;;;28.85;;
12038;SDS011;6080;48.818;9.526;2022-07-23T07:10:31;14.50;;;13.63;;
12038;SDS011;6080;48.818;9.526;2022-07-23T07:12:57;22.23;;;20.83;;
12038;SDS011;6080;48.818;9.526;2022-07-23T07:15:23;25.10;;;23.45;;
12038;SDS011;6080;48.818;9.526;2022-07-23T07:17:49;24.55;;;23.27;;
12038;SDS011;6080;48.818;9.526;2022-07-23T07:20:14;21.50;;;19.98;;
12038;SDS011;6080;48.818;9.526;2022-07-23T07:22:40;14.05;;;13.02;;
12038;SDS011;6080;48.818;9.526;2022-07-23T07:25:06;12.00;;;11.20;;
12038;SDS011;6080;48.818;9.526;2022-07-23T07:27:32;10.57;;;9.77;;
12038;SDS011;6080;48.818;9.526;2022-07-23T07:29:58;8.60;;;8.10;;
12038;SDS011;6080;48.818;9.526;2022-07-23T07:32:24;11.13;;;8.75;;
12038;SDS011;6080;48.818;9.526;2022-07-23T07:34:50;42.65;;;39.08;;
12038;SDS011;6080;48.818;9.526;2022-07-23T07:37:16;68.93;;;64.57;;
12038;SDS011;6080;48.818;9.526;2022-07-23T07:39:42;31.92;;;29.50;;
12038;SDS011;6080;48.818;9.526;2022-07-23T07:42:08;20.85;;;19.35;;
12038;SDS011;6080;48.818;9.526;2022-07-23T07:44:33;22.98;;;21.40;;
12038;SDS011;6080;48.818;9.526;2022-07-23T07:46:59;33.70;;;31.20;;
12038;SDS011;6080;48.818;9.526;2022-07-23T07:49:25;42.28;;;39.58;;
12038;SDS011;6080;48.818;9.526;2022-07-23T07:51:51;39.42;;;36.88;;
12038;SDS011;6080;48.818;9.526;2022-07-23T07:54:16;61.55;;;57.45;;
12038;SDS011;6080;48.818;9.526;2022-07-23T07:56:42;54.72;;;51.72;;
12038;SDS011;6080;48.818;9.526;2022-07-23T07:59:08;52.28;;;48.83;;
12038;SDS011;6080;48.818;9.526;2022-07-23T08:01:34;34.10;;;32.00;;
12038;SDS011;6080;48.818;9.526;2022-07-23T08:03:59;25.10;;;23.55;;
12038;SDS011;6080;48.818;9.526;2022-07-23T08:06:25;22.35;;;20.65;;
12038;SDS011;6080;48.818;9.526;2022-07-23T08:08:51;23.17;;;21.67;;
12038;SDS011;6080;48.818;9.526;2022-07-23T08:11:17;19.48;;;17.88;;
12038;SDS011;6080;48.818;9.526;2022-07-23T08:13:43;18.25;;;16.95;;
12038;SDS011;6080;48.818;9.526;2022-07-23T08:16:10;16.67;;;15.38;;
12038;SDS011;6080;48.818;9.526;2022-07-23T08:18:36;24.40;;;22.60;;
12038;SDS011;6080;48.818;9.526;2022-07-23T08:21:02;61.90;;;58.30;;
12038;SDS011;6080;48.818;9.526;2022-07-23T08:23:30;17.77;;;16.52;;
12038;SDS011;6080;48.818;9.526;2022-07-23T08:25:57;52.03;;;48.90;;
12038;SDS011;6080;48.818;9.526;2022-07-23T08:28:24;30.40;;;28.40;;
12038;SDS011;6080;48.818;9.526;2022-07-23T08:30:50;25.42;;;23.02;;
12038;SDS011;6080;48.818;9.526;2022-07-23T08:33:17;24.77;;;22.60;;
12038;SDS011;6080;48.818;9.526;2022-07-23T08:35:44;25.77;;;23.48;;
12038;SDS011;6080;48.818;9.526;2022-07-23T08:38:14;19.17;;;17.75;;
12038;SDS011;6080;48.818;9.526;2022-07-23T08:40:42;60.22;;;56.90;;
12038;SDS011;6080;48.818;9.526;2022-07-23T08:43:10;67.10;;;63.67;;
12038;SDS011;6080;48.818;9.526;2022-07-23T08:45:39;47.10;;;44.38;;
12038;SDS011;6080;48.818;9.526;2022-07-23T08:48:27;18.75;;;17.55;;
12038;SDS011;6080;48.818;9.526;2022-07-23T08:50:56;15.98;;;14.85;;
12038;SDS011;6080;48.818;9.526;2022-07-23T08:53:24;44.92;;;42.10;;
12038;SDS011;6080;48.818;9.526;2022-07-23T08:55:56;98.57;;;93.05;;
12038;SDS011;6080;48.818;9.526;2022-07-23T08:58:24;46.55;;;44.05;;
12038;SDS011;6080;48.818;9.526;2022-07-23T09:00:50;25.65;;;24.05;;
12038;SDS011;6080;48.818;9.526;2022-07-23T09:03:17;52.63;;;49.72;;
12038;SDS011;6080;48.818;9.526;2022-07-23T09:05:52;65.03;;;61.60;;
12038;SDS011;6080;48.818;9.526;2022-07-23T09:08:22;22.02;;;20.65;;
12038;SDS011;6080;48.818;9.526;2022-07-23T09:15:55;35.22;;;33.28;;
12038;SDS011;6080;48.818;9.526;2022-07-23T09:23:58;36.15;;;34.03;;
12038;SDS011;6080;48.818;9.526;2022-07-23T09:31:41;9.65;;;8.95;;
12038;SDS011;6080;48.818;9.526;2022-07-23T09:34:14;9.25;;;8.55;;
12038;SDS011;6080;48.818;9.526;2022-07-23T09:36:43;9.23;;;8.65;;
12038;SDS011;6080;48.818;9.526;2022-07-23T09:39:09;11.45;;;10.57;;
12038;SDS011;6080;48.818;9.526;2022-07-23T09:41:46;12.70;;;11.90;;
12038;SDS011;6080;48.818;9.526;2022-07-23T09:44:13;7.38;;;6.82;;
12038;SDS011;6080;48.818;9.526;2022-07-23T09:46:41;9.88;;;7.68;;
12038;SDS011;6080;48.818;9.526;2022-07-23T09:49:15;10.02;;;9.25;;
12038;SDS011;6080;48.818;9.526;2022-07-23T09:51:44;10.00;;;9.10;;
12038;SDS011;6080;48.818;9.526;2022-07-23T09:54:27;9.88;;;9.27;;
12038;SDS011;6080;48.818;9.526;2022-07-23T09:56:57;13.40;;;12.48;;
12038;SDS011;6080;48.818;9.526;2022-07-23T09:59:26;8.65;;;8.05;;
12038;SDS011;6080;48.818;9.526;2022-07-23T10:01:55;8.98;;;8.07;;
12038;SDS011;6080;48.818;9.526;2022-07-23T10:04:23;7.50;;;6.90;;
12038;SDS011;6080;48.818;9.526;2022-07-23T10:06:53;7.88;;;7.05;;
12038;SDS011;6080;48.818;9.526;2022-07-23T10:09:22;7.47;;;6.88;;
12038;SDS011;6080;48.818;9.526;2022-07-23T10:11:50;9.35;;;8.65;;
12038;SDS011;6080;48.818;9.526;2022-07-23T10:14:20;10.93;;;10.13;;
12038;SDS011;6080;48.818;9.526;2022-07-23T10:16:47;15.45;;;14.57;;
12038;SDS011;6080;48.818;9.526;2022-07-23T10:19:13;17.58;;;16.58;;
12038;SDS011;6080;48.818;9.526;2022-07-23T10:21:40;16.65;;;15.73;;
12038;SDS011;6080;48.818;9.526;2022-07-23T10:33:26;7.70;;;7.10;;
12038;SDS011;6080;48.818;9.526;2022-07-23T10:41:31;25.17;;;23.77;;
12038;SDS011;6080;48.818;9.526;2022-07-23T10:46:36;33.72;;;31.92;;
12038;SDS011;6080;48.818;9.526;2022-07-23T10:49:40;11.18;;;10.48;;
12038;SDS011;6080;48.818;9.526;2022-07-23T10:54:53;32.85;;;31.15;;
12038;SDS011;6080;48.818;9.526;2022-07-23T10:57:46;53.72;;;50.95;;
12038;SDS011;6080;48.818;9.526;2022-07-23T11:00:14;79.75;;;75.85;;
12038;SDS011;6080;48.818;9.526;2022-07-23T11:02:44;37.75;;;35.78;;
12038;SDS011;6080;48.818;9.526;2022-07-23T11:05:12;108.22;;;103.05;;
12038;SDS011;6080;48.818;9.526;2022-07-23T11:32:00;107.95;;;102.53;;
12038;SDS011;6080;48.818;9.526;2022-07-23T11:37:01;179.27;;;170.60;;
12038;SDS011;6080;48.818;9.526;2022-07-23T11:39:30;251.82;;;239.52;;
12038;SDS011;6080;48.818;9.526;2022-07-23T11:41:57;170.75;;;162.55;;
12038;SDS011;6080;48.818;9.526;2022-07-23T11:44:24;77.63;;;73.63;;
12038;SDS011;6080;48.818;9.526;2022-07-23T11:47:00;44.47;;;42.20;;
12038;SDS011;6080;48.818;9.526;2022-07-23T11:49:28;19.45;;;18.30;;
12038;SDS011;6080;48.818;9.526;2022-07-23T11:52:08;8.55;;;8.05;;
12038;SDS011;6080;48.818;9.526;2022-07-23T11:54:48;11.00;;;10.30;;
12038;SDS011;6080;48.818;9.526;2022-07-23T11:57:14;11.00;;;10.40;;
12038;SDS011;6080;48.818;9.526;2022-07-23T11:59:40;24.40;;;23.10;;
12038;SDS011;6080;48.818;9.526;2022-07-23T12:02:07;85.65;;;81.50;;
12038;SDS011;6080;48.818;9.526;2022-07-23T12:04:37;194.00;;;184.48;;
12038;SDS011;6080;48.818;9.526;2022-07-23T12:09:51;445.63;;;421.15;;
12038;SDS011;6080;48.818;9.526;2022-07-23T12:12:18;455.80;;;430.52;;
12038;SDS011;6080;48.818;9.526;2022-07-23T12:14:51;432.52;;;408.38;;
12038;SDS011;6080;48.818;9.526;2022-07-23T12:17:17;419.23;;;396.50;;
12038;SDS011;6080;48.818;9.526;2022-07-23T12:19:43;395.83;;;374.80;;
12038;SDS011;6080;48.818;9.526;2022-07-23T12:22:09;397.20;;;375.85;;
12038;SDS011;6080;48.818;9.526;2022-07-23T12:27:26;357.00;;;338.40;;
12038;SDS011;6080;48.818;9.526;2022-07-23T12:29:52;397.00;;;375.67;;
12038;SDS011;6080;48.818;9.526;2022-07-23T12:32:19;372.10;;;352.15;;
12038;SDS011;6080;48.818;9.526;2022-07-23T12:35:06;407.45;;;385.58;;
12038;SDS011;6080;48.818;9.526;2022-07-23T12:37:34;456.13;;;430.75;;
12038;SDS011;6080;48.818;9.526;2022-07-23T12:45:27;519.17;;;488.65;;
12038;SDS011;6080;48.818;9.526;2022-07-23T12:48:06;464.63;;;438.73;;
12038;SDS011;6080;48.818;9.526;2022-07-23T12:50:33;431.58;;;407.90;;
12038;SDS011;6080;48.818;9.526;2022-07-23T12:53:09;467.25;;;441.27;;
12038;SDS011;6080;48.818;9.526;2022-07-23T12:55:35;465.63;;;439.77;;
12038;SDS011;6080;48.818;9.526;2022-07-23T13:00:32;491.42;;;463.65;;
12038;SDS011;6080;48.818;9.526;2022-07-23T13:03:24;428.42;;;405.15;;
12038;SDS011;6080;48.818;9.526;2022-07-23T13:05:50;495.92;;;467.50;;
12038;SDS011;6080;48.818;9.526;2022-07-23T13:08:16;501.23;;;472.17;;
12038;SDS011;6080;48.818;9.526;2022-07-23T13:10:42;521.88;;;491.30;;
12038;SDS011;6080;48.818;9.526;2022-07-23T13:13:12;484.15;;;456.17;;
12038;SDS011;6080;48.818;9.526;2022-07-23T13:15:38;494.73;;;466.08;;
12038;SDS011;6080;48.818;9.526;2022-07-23T13:18:04;496.67;;;468.08;;
12038;SDS011;6080;48.818;9.526;2022-07-23T13:20:30;482.15;;;454.50;;
12038;SDS011;6080;48.818;9.526;2022-07-23T13:22:57;522.55;;;492.00;;
12038;SDS011;6080;48.818;9.526;2022-07-23T13:25:23;471.45;;;444.50;;
12038;SDS011;6080;48.818;9.526;2022-07-23T13:27:49;522.03;;;491.42;;
12038;SDS011;6080;48.818;9.526;2022-07-23T13:30:15;491.50;;;463.20;;
12038;SDS011;6080;48.818;9.526;2022-07-23T13:32:40;480.02;;;452.67;;
12038;SDS011;6080;48.818;9.526;2022-07-23T13:35:08;523.35;;;493.27;;
12038;SDS011;6080;48.818;9.526;2022-07-23T13:37:34;447.08;;;422.38;;
12038;SDS011;6080;48.818;9.526;2022-07-23T13:40:00;422.90;;;399.52;;
12038;SDS011;6080;48.818;9.526;2022-07-23T13:42:26;466.65;;;440.55;;
12038;SDS011;6080;48.818;9.526;2022-07-23T13:44:52;477.67;;;450.77;;
12038;SDS011;6080;48.818;9.526;2022-07-23T13:47:18;469.35;;;443.20;;
12038;SDS011;6080;48.818;9.526;2022-07-23T13:49:44;461.80;;;436.15;;
12038;SDS011;6080;48.818;9.526;2022-07-23T13:52:09;436.40;;;412.45;;
12038;SDS011;6080;48.818;9.526;2022-07-23T13:54:35;405.35;;;383.08;;
12038;SDS011;6080;48.818;9.526;2022-07-23T13:57:01;392.15;;;370.58;;
12038;SDS011;6080;48.818;9.526;2022-07-23T13:59:27;345.38;;;327.05;;
12038;SDS011;6080;48.818;9.526;2022-07-23T14:01:53;260.15;;;247.18;;
12038;SDS011;6080;48.818;9.526;2022-07-23T14:04:20;237.85;;;225.73;;
12038;SDS011;6080;48.818;9.526;2022-07-23T14:06:46;177.25;;;168.38;;
12038;SDS011;6080;48.818;9.526;2022-07-23T14:09:12;141.85;;;134.82;;
12038;SDS011;6080;48.818;9.526;2022-07-23T14:11:38;204.23;;;193.98;;
12038;SDS011;6080;48.818;9.526;2022-07-23T14:14:04;194.70;;;184.80;;
12038;SDS011;6080;48.818;9.526;2022-07-23T14:16:30;217.05;;;205.93;;
12038;SDS011;6080;48.818;9.526;2022-07-23T14:18:56;227.35;;;216.05;;
12038;SDS011;6080;48.818;9.526;2022-07-23T14:21:22;193.85;;;184.18;;
12038;SDS011;6080;48.818;9.526;2022-07-23T14:23:47;211.68;;;201.23;;
12038;SDS011;6080;48.818;9.526;2022-07-23T14:26:13;227.68;;;216.40;;
12038;SDS011;6080;48.818;9.526;2022-07-23T14:28:39;251.98;;;239.43;;
12038;SDS011;6080;48.818;9.526;2022-07-23T14:31:05;178.90;;;169.95;;
12038;SDS011;6080;48.818;9.526;2022-07-23T14:33:31;159.05;;;150.82;;
12038;SDS011;6080;48.818;9.526;2022-07-23T14:35:57;155.82;;;148.18;;
12038;SDS011;6080;48.818;9.526;2022-07-23T14:38:24;168.15;;;159.80;;
12038;SDS011;6080;48.818;9.526;2022-07-23T14:40:49;225.18;;;214.00;;
12038;SDS011;6080;48.818;9.526;2022-07-23T14:43:16;331.13;;;313.63;;
12038;SDS011;6080;48.818;9.526;2022-07-23T14:45:41;433.55;;;409.38;;
12038;SDS011;6080;48.818;9.526;2022-07-23T14:48:07;526.20;;;495.30;;
12038;SDS011;6080;48.818;9.526;2022-07-23T14:50:33;505.42;;;476.23;;
12038;SDS011;6080;48.818;9.526;2022-07-23T14:52:59;348.60;;;330.80;;
12038;SDS011;6080;48.818;9.526;2022-07-23T14:55:24;348.60;;;330.42;;
12038;SDS011;6080;48.818;9.526;2022-07-23T14:57:51;481.67;;;454.63;;
12038;SDS011;6080;48.818;9.526;2022-07-23T15:00:16;470.58;;;443.80;;
12038;SDS011;6080;48.818;9.526;2022-07-23T15:02:42;252.18;;;239.32;;
12038;SDS011;6080;48.818;9.526;2022-07-23T15:05:08;148.80;;;141.45;;
12038;SDS011;6080;48.818;9.526;2022-07-23T15:07:34;100.32;;;95.10;;
12038;SDS011;6080;48.818;9.526;2022-07-23T15:10:01;208.15;;;197.77;;
12038;SDS011;6080;48.818;9.526;2022-07-23T15:12:27;474.85;;;448.25;;
12038;SDS011;6080;48.818;9.526;2022-07-23T15:14:53;503.83;;;475.05;;
12038;SDS011;6080;48.818;9.526;2022-07-23T15:17:19;471.33;;;445.25;;
12038;SDS011;6080;48.818;9.526;2022-07-23T15:19:44;381.00;;;360.92;;
12038;SDS011;6080;48.818;9.526;2022-07-23T15:22:10;350.23;;;332.10;;
12038;SDS011;6080;48.818;9.526;2022-07-23T15:24:36;434.48;;;410.60;;
12038;SDS011;6080;48.818;9.526;2022-07-23T15:27:02;472.65;;;445.85;;
12038;SDS011;6080;48.818;9.526;2022-07-23T15:29:28;499.75;;;470.73;;
12038;SDS011;6080;48.818;9.526;2022-07-23T15:31:53;480.15;;;452.98;;
12038;SDS011;6080;48.818;9.526;2022-07-23T15:34:19;498.33;;;469.92;;
12038;SDS011;6080;48.818;9.526;2022-07-23T15:36:45;476.05;;;449.35;;
12038;SDS011;6080;48.818;9.526;2022-07-23T15:39:11;492.77;;;464.67;;
12038;SDS011;6080;48.818;9.526;2022-07-23T15:41:36;492.15;;;464.02;;
12038;SDS011;6080;48.818;9.526;2022-07-23T15:44:02;498.73;;;470.17;;
12038;SDS011;6080;48.818;9.526;2022-07-23T15:46:28;403.13;;;381.63;;
12038;SDS011;6080;48.818;9.526;2022-07-23T15:48:54;255.10;;;242.68;;